createdAt,value
2019-02-22T00:00:59.695Z,6.90
2019-02-22T00:05:54.280Z,7.00
2019-02-22T00:10:48.881Z,7.10
2019-02-22T00:15:43.482Z,7.00
2019-02-22T00:20:38.079Z,7.10
2019-02-22T00:25:32.673Z,7.10
2019-02-22T00:30:27.243Z,7.00
2019-02-22T00:35:21.913Z,7.00
2019-02-22T00:40:16.511Z,7.10
2019-02-22T00:45:11.177Z,7.20
2019-02-22T00:50:06.674Z,7.20
2019-02-22T00:55:01.281Z,7.20
2019-02-22T00:59:55.845Z,7.20
2019-02-22T01:04:50.451Z,7.20
2019-02-22T01:09:45.044Z,7.10
2019-02-22T01:14:39.625Z,7.20
2019-02-22T01:19:34.207Z,7.10
2019-02-22T01:24:28.806Z,7.10
2019-02-22T01:29:23.403Z,7.20
2019-02-22T01:34:18.001Z,7.00
2019-02-22T01:39:12.663Z,7.10
2019-02-22T01:44:10.286Z,7.10
2019-02-22T01:49:04.881Z,7.10
2019-02-22T01:53:59.458Z,7.10
2019-02-22T01:58:54.036Z,7.10
2019-02-22T02:03:48.628Z,7.10
2019-02-22T02:08:43.218Z,7.30
2019-02-22T02:13:37.809Z,7.30
2019-02-22T02:18:32.406Z,7.30
2019-02-22T02:23:26.996Z,7.30
2019-02-22T02:28:21.598Z,7.20
2019-02-22T02:33:16.189Z,7.10
2019-02-22T02:38:10.782Z,7.10
2019-02-22T02:43:05.439Z,7.10
2019-02-22T02:48:00.025Z,7.20
2019-02-22T02:52:54.619Z,7.20
2019-02-22T02:57:49.211Z,7.20
2019-02-22T03:02:43.804Z,7.20
2019-02-22T03:07:40.032Z,7.40
2019-02-22T03:12:34.623Z,7.50
2019-02-22T03:17:29.225Z,7.50
2019-02-22T03:22:23.818Z,7.30
2019-02-22T03:27:18.414Z,7.30
2019-02-22T03:32:13.011Z,7.30
2019-02-22T03:37:07.596Z,7.30
2019-02-22T03:42:02.206Z,7.20
2019-02-22T03:46:56.808Z,7.30
2019-02-22T03:51:51.415Z,7.30
2019-02-22T03:56:46.078Z,7.30
2019-02-22T04:01:40.671Z,7.30
2019-02-22T04:06:35.273Z,7.30
2019-02-22T04:11:29.849Z,7.30
2019-02-22T04:16:24.451Z,7.30
2019-02-22T04:21:19.041Z,7.20
2019-02-22T04:26:13.623Z,7.20
2019-02-22T04:31:08.210Z,7.30
2019-02-22T04:36:02.804Z,7.30
2019-02-22T04:40:57.389Z,7.30
2019-02-22T04:45:51.990Z,7.40
2019-02-22T04:50:46.736Z,7.20
2019-02-22T04:55:41.350Z,7.10
2019-02-22T05:00:35.917Z,7.10
2019-02-22T05:05:30.602Z,7.20
2019-02-22T05:10:25.183Z,7.20
2019-02-22T05:15:19.840Z,7.20
2019-02-22T05:20:14.434Z,7.30
2019-02-22T05:25:09.147Z,7.20
2019-02-22T05:30:03.803Z,7.30
2019-02-22T05:34:58.406Z,7.30
2019-02-22T05:39:53.010Z,7.30
2019-02-22T05:44:47.583Z,7.30
2019-02-22T05:49:42.176Z,7.40
2019-02-22T05:54:36.838Z,7.40
2019-02-22T05:59:31.442Z,7.50
2019-02-22T06:04:26.034Z,7.50
2019-02-22T06:09:20.632Z,7.50
2019-02-22T06:14:15.214Z,7.50
2019-02-22T06:19:09.807Z,7.50
2019-02-22T06:24:04.472Z,7.60
2019-02-22T06:28:59.049Z,7.70
2019-02-22T06:33:53.644Z,7.70
2019-02-22T06:38:48.428Z,7.70
2019-02-22T06:43:42.987Z,7.60
2019-02-22T06:48:37.581Z,7.60
2019-02-22T06:53:32.182Z,7.50
2019-02-22T06:58:26.762Z,7.50
2019-02-22T07:03:22.429Z,7.60
2019-02-22T07:08:22.869Z,7.60
2019-02-22T07:13:17.726Z,7.60
2019-02-22T07:18:13.687Z,7.60
2019-02-22T07:23:08.298Z,7.70
2019-02-22T07:28:03.460Z,7.80
2019-02-22T07:33:08.257Z,8.00
2019-02-22T07:38:04.656Z,8.10
2019-02-22T07:43:08.101Z,8.20
2019-02-22T07:48:00.070Z,8.30
2019-02-22T07:52:56.555Z,8.40
2019-02-22T07:57:52.825Z,8.50
2019-02-22T08:02:47.471Z,8.50
2019-02-22T08:07:45.427Z,8.60
2019-02-22T08:12:40.266Z,8.50
2019-02-22T08:17:34.881Z,8.70
2019-02-22T08:22:29.465Z,8.70
2019-02-22T08:27:24.096Z,8.90
2019-02-22T08:32:25.275Z,9.20
2019-02-22T08:37:20.168Z,9.50
2019-02-22T08:42:15.096Z,9.90
2019-02-22T08:47:09.729Z,10.20
2019-02-22T08:52:04.439Z,10.20
2019-02-22T08:57:03.215Z,9.80
2019-02-22T09:02:02.908Z,9.60
2019-02-22T09:06:57.797Z,9.40
2019-02-22T09:11:52.383Z,9.20
2019-02-22T09:16:47.065Z,9.10
2019-02-22T09:21:41.660Z,8.90
2019-02-22T09:26:37.418Z,8.80
2019-02-22T09:31:32.061Z,8.60
2019-02-22T09:36:26.791Z,8.70
2019-02-22T09:41:21.391Z,9.00
2019-02-22T09:46:16.260Z,9.00
2019-02-22T09:51:11.137Z,9.20
2019-02-22T09:56:05.746Z,9.40
2019-02-22T10:01:00.340Z,9.50
2019-02-22T10:05:54.963Z,9.70
2019-02-22T10:10:49.786Z,10.00
2019-02-22T10:15:44.520Z,10.20
2019-02-22T10:20:39.130Z,10.30
2019-02-22T10:25:34.490Z,10.50
2019-02-22T10:30:29.391Z,10.80
2019-02-22T10:35:23.997Z,10.90
2019-02-22T10:40:18.695Z,11.20
2019-02-22T10:45:13.422Z,11.40
2019-02-22T10:50:09.930Z,11.40
2019-02-22T10:55:07.382Z,11.60
2019-02-22T11:00:02.382Z,11.80
2019-02-22T11:04:57.184Z,11.90
2019-02-22T11:09:51.906Z,12.10
2019-02-22T11:14:46.507Z,12.40
2019-02-22T11:19:41.797Z,12.40
2019-02-22T11:24:36.387Z,12.90
2019-02-22T11:29:30.985Z,13.10
2019-02-22T11:34:25.669Z,13.10
2019-02-22T11:39:22.115Z,12.90
2019-02-22T11:44:16.734Z,12.90
2019-02-22T11:49:11.361Z,12.50
2019-02-22T11:54:05.978Z,12.30
2019-02-22T11:59:00.558Z,12.20
2019-02-22T12:03:55.178Z,12.40
2019-02-22T12:08:49.777Z,12.20
2019-02-22T12:13:44.431Z,12.10
2019-02-22T12:18:39.104Z,12.10
2019-02-22T12:23:33.697Z,12.30
2019-02-22T12:28:28.302Z,12.60
2019-02-22T12:33:22.936Z,12.80
2019-02-22T12:38:19.458Z,13.10
2019-02-22T12:43:14.001Z,13.20
2019-02-22T12:48:08.643Z,13.30
2019-02-22T12:53:03.225Z,13.20
2019-02-22T12:57:57.877Z,13.00
2019-02-22T13:03:01.513Z,13.00
2019-02-22T13:07:52.426Z,13.10
2019-02-22T13:12:46.159Z,13.10
2019-02-22T13:17:40.908Z,13.00
2019-02-22T13:22:35.595Z,12.90
2019-02-22T13:27:36.266Z,12.90
2019-02-22T13:32:32.402Z,13.40
2019-02-22T13:37:27.054Z,13.40
2019-02-22T13:42:21.728Z,13.20
2019-02-22T13:47:16.823Z,12.00
2019-02-22T13:52:11.635Z,11.00
2019-02-22T13:57:06.301Z,10.70
2019-02-22T14:02:00.892Z,10.50
2019-02-22T14:06:55.539Z,10.50
2019-02-22T14:11:50.196Z,10.60
2019-02-22T14:16:44.801Z,10.70
2019-02-22T14:21:39.413Z,10.90
2019-02-22T14:26:34.021Z,11.20
2019-02-22T14:31:28.649Z,11.50
2019-02-22T14:36:23.364Z,11.70
2019-02-22T14:41:17.909Z,11.50
2019-02-22T14:46:12.591Z,11.50
2019-02-22T14:51:07.651Z,11.50
2019-02-22T14:56:02.336Z,11.30
2019-02-22T15:00:57.151Z,11.20
2019-02-22T15:05:51.773Z,11.10
2019-02-22T15:10:48.125Z,11.10
2019-02-22T15:16:03.639Z,11.00
2019-02-22T15:20:56.995Z,11.00
2019-02-22T15:25:51.770Z,11.00
2019-02-22T15:30:46.432Z,11.10
2019-02-22T15:35:41.121Z,11.20
2019-02-22T15:40:35.714Z,11.20
2019-02-22T15:45:30.428Z,11.10
2019-02-22T15:50:25.136Z,11.20
2019-02-22T15:55:19.696Z,11.10
2019-02-22T16:00:31.100Z,10.90
2019-02-22T16:05:30.300Z,10.40
2019-02-22T16:10:25.187Z,10.20
2019-02-22T16:15:20.129Z,10.10
2019-02-22T16:20:15.087Z,10.00
2019-02-22T16:25:19.143Z,10.00
2019-02-22T16:30:12.847Z,10.00
2019-02-22T16:35:07.766Z,10.10
2019-02-22T16:40:02.359Z,10.20
2019-02-22T16:44:56.953Z,10.30
2019-02-22T16:49:51.565Z,10.30
2019-02-22T16:54:46.166Z,10.10
2019-02-22T16:59:40.768Z,10.00
2019-02-22T17:04:35.370Z,10.10
2019-02-22T17:09:30.014Z,10.10
2019-02-22T17:14:24.614Z,10.00
2019-02-22T17:19:19.202Z,9.90
2019-02-22T17:24:13.801Z,9.80
2019-02-22T17:29:08.398Z,9.70
2019-02-22T17:34:02.980Z,9.50
2019-02-22T17:38:57.561Z,9.50
2019-02-22T17:43:52.151Z,9.40
2019-02-22T17:48:47.086Z,9.40
2019-02-22T17:53:41.845Z,9.30
2019-02-22T17:58:36.442Z,9.30
2019-02-22T18:03:31.034Z,9.30
2019-02-22T18:08:25.622Z,9.30
2019-02-22T18:13:20.215Z,9.30
2019-02-22T18:18:16.099Z,9.20
2019-02-22T18:23:10.680Z,9.10
2019-02-22T18:28:05.265Z,9.10
2019-02-22T18:32:59.855Z,8.90
2019-02-22T18:37:54.440Z,8.80
2019-02-22T18:42:49.062Z,8.70
2019-02-22T18:47:43.660Z,8.60
2019-02-22T18:52:38.386Z,8.60
2019-02-22T18:57:33.002Z,8.50
2019-02-22T19:02:27.589Z,8.50
2019-02-22T19:07:22.190Z,8.40
2019-02-22T19:12:16.782Z,8.40
2019-02-22T19:17:11.380Z,8.30
2019-02-22T19:22:05.967Z,8.20
2019-02-22T19:27:00.550Z,8.10
2019-02-22T19:31:55.149Z,8.10
2019-02-22T19:36:49.748Z,8.00
2019-02-22T19:41:44.331Z,7.90
2019-02-22T19:46:38.925Z,7.80
2019-02-22T19:51:33.512Z,7.70
2019-02-22T19:56:28.121Z,7.80
2019-02-22T20:01:22.730Z,7.80
2019-02-22T20:06:17.336Z,7.70
2019-02-22T20:11:11.928Z,7.70
2019-02-22T20:16:06.526Z,7.70
2019-02-22T20:21:01.119Z,7.60
2019-02-22T20:25:55.712Z,7.50
2019-02-22T20:30:50.316Z,7.70
2019-02-22T20:35:44.926Z,7.80
2019-02-22T20:40:39.586Z,8.00
2019-02-22T20:45:34.252Z,7.90
2019-02-22T20:50:28.837Z,7.90
2019-02-22T20:55:23.434Z,7.90
2019-02-22T21:00:27.280Z,8.00
2019-02-22T21:05:21.925Z,8.00
2019-02-22T21:10:21.848Z,7.90
2019-02-22T21:15:16.512Z,7.90
2019-02-22T21:20:20.569Z,7.90
2019-02-22T21:25:15.311Z,7.90
2019-02-22T21:30:14.348Z,7.90
2019-02-22T21:35:10.838Z,7.80
2019-02-22T21:40:08.039Z,7.80
2019-02-22T21:45:02.879Z,7.90
2019-02-22T21:49:57.479Z,7.80
2019-02-22T21:54:52.059Z,7.80
2019-02-22T21:59:46.662Z,7.70
2019-02-22T22:04:41.238Z,7.60
2019-02-22T22:09:35.846Z,7.40
2019-02-22T22:14:30.468Z,7.40
2019-02-22T22:19:25.047Z,7.20
2019-02-22T22:24:19.643Z,7.00
2019-02-22T22:29:14.247Z,6.90
2019-02-22T22:34:08.848Z,6.80
2019-02-22T22:39:03.931Z,6.70
2019-02-22T22:43:58.540Z,6.70
2019-02-22T22:48:53.135Z,6.60
2019-02-22T22:53:47.729Z,6.60
2019-02-22T22:58:42.303Z,6.50
2019-02-22T23:03:36.974Z,6.30
2019-02-22T23:08:31.565Z,6.30
2019-02-22T23:13:26.430Z,6.10
2019-02-22T23:18:21.103Z,6.20
2019-02-22T23:23:15.671Z,6.10
2019-02-22T23:28:10.268Z,6.00
2019-02-22T23:33:04.992Z,5.80
2019-02-22T23:37:59.619Z,5.70
2019-02-22T23:42:54.282Z,5.80
2019-02-22T23:47:48.853Z,6.00
2019-02-22T23:52:43.455Z,6.10
2019-02-22T23:57:38.041Z,6.00
